Time;durP1;ratioP1;P1;durP2;ratioP2;P2;SDS_P1;SDS_P2;PMS_P1;PMS_P2;Temp;Humidity;BMP_temperature;BMP_pressure;BME280_temperature;BME280_humidity;BME280_pressure;Samples;Min_cycle;Max_cycle;Signal;HPM_P1;HPM_P2
2023/10/05 00:03:47;;;;;;;9.05;4.82;;;10.80;99.90;;;;;;4983331;28;20030;-80
2023/10/05 00:06:14;;;;;;;14.68;4.70;;;10.30;99.90;;;;;;4961802;28;20027;-85
2023/10/05 00:08:45;;;;;;;9.77;4.13;;;10.20;99.90;;;;;;4980476;28;20035;-82
2023/10/05 00:11:23;;;;;;;12.60;4.38;;;10.10;99.90;;;;;;4963056;28;20034;-85
2023/10/05 00:13:52;;;;;;;14.60;4.95;;;10.10;99.90;;;;;;4961133;28;20069;-86
2023/10/05 00:16:20;;;;;;;13.80;5.80;;;;;;;;;;4964365;28;20125;-85
2023/10/05 00:18:50;;;;;;;20.08;9.50;;;10.20;99.90;;;;;;4962107;28;20039;-83
2023/10/05 00:21:21;;;;;;;19.85;8.50;;;10.10;99.90;;;;;;4959762;28;20122;-84
2023/10/05 00:23:57;;;;;;;16.70;9.98;;;;;;;;;;4958012;23;20069;-87
2023/10/05 00:26:28;;;;;;;23.95;10.90;;;;;;;;;;4952470;28;20473;-86
2023/10/05 00:31:30;;;;;;;24.77;12.13;;;;;;;;;;4939952;28;20067;-86
2023/10/05 00:33:59;;;;;;;21.17;11.18;;;;;;;;;;4948263;28;20040;-83
2023/10/05 00:36:26;;;;;;;21.48;11.80;;;;;;;;;;4952859;28;20114;-86
2023/10/05 00:38:52;;;;;;;22.90;12.05;;;10.00;99.90;;;;;;4950827;28;20027;-87
2023/10/05 00:41:18;;;;;;;22.23;12.60;;;;;;;;;;4951282;28;20111;-86
2023/10/05 00:43:47;;;;;;;25.75;14.02;;;;;;;;;;4949928;28;20513;-85
2023/10/05 00:46:13;;;;;;;25.92;13.82;;;10.00;99.90;;;;;;4948252;28;20027;-85
2023/10/05 00:48:56;;;;;;;26.48;14.05;;;;;;;;;;4939484;28;20028;-86
2023/10/05 00:51:30;;;;;;;28.02;14.68;;;;;;;;;;4953206;28;20034;-86
2023/10/05 00:53:58;;;;;;;27.55;15.70;;;;;;;;;;4947838;28;20032;-86
2023/10/05 00:56:24;;;;;;;24.33;13.82;;;;;;;;;;4955325;28;20073;-87
2023/10/05 00:58:55;;;;;;;29.42;13.77;;;;;;;;;;4965201;28;20047;-85
2023/10/05 01:01:28;;;;;;;29.55;14.52;;;;;;;;;;4947574;28;20036;-86
2023/10/05 01:06:32;;;;;;;24.38;13.07;;;;;;;;;;4946468;28;20031;-85
2023/10/05 01:09:04;;;;;;;26.35;13.88;;;;;;;;;;4968778;28;20020;-85
2023/10/05 01:14:43;;;;;;;21.27;12.95;;;;;;;;;;4931550;29;20028;-86
2023/10/05 01:17:09;;;;;;;23.77;11.85;;;;;;;;;;4919215;29;20196;-86
2023/10/05 01:19:38;;;;;;;22.65;12.45;;;;;;;;;;4934655;29;20409;-80
2023/10/05 01:22:10;;;;;;;20.00;11.90;;;;;;;;;;4924997;29;20046;-84
2023/10/05 01:24:36;;;;;;;23.38;11.75;;;;;;;;;;4968384;28;20282;-86
2023/10/05 01:27:03;;;;;;;23.50;11.90;;;;;;;;;;4968747;28;20069;-83
2023/10/05 01:29:29;;;;;;;23.05;11.88;;;;;;;;;;4950681;28;20445;-82
2023/10/05 01:31:56;;;;;;;22.73;11.75;;;;;;;;;;4948323;28;20027;-84
2023/10/05 01:34:22;;;;;;;22.42;11.30;;;;;;;;;;4947091;28;20102;-85
2023/10/05 01:36:48;;;;;;;21.00;10.23;;;;;;;;;;4949751;28;20057;-82
2023/10/05 01:39:18;;;;;;;18.90;10.05;;;;;;;;;;4952552;28;20043;-83
2023/10/05 01:41:47;;;;;;;19.23;10.25;;;;;;;;;;4969086;28;20035;-84
2023/10/05 01:44:14;;;;;;;22.02;10.70;;;;;;;;;;4966018;28;20030;-82
2023/10/05 01:46:41;;;;;;;19.30;10.50;;;;;;;;;;4955016;28;20035;-87
2023/10/05 01:49:08;;;;;;;20.35;10.65;;;;;;;;;;4951700;28;20036;-84
2023/10/05 01:51:34;;;;;;;17.33;9.40;;;;;;;;;;4953108;28;20035;-86
2023/10/05 01:54:11;;;;;;;18.30;9.88;;;;;;;;;;4949408;28;20103;-83
2023/10/05 01:56:39;;;;;;;19.52;9.43;;;;;;;;;;4949840;28;20111;-84
2023/10/05 01:59:10;;;;;;;20.55;9.27;;;;;;;;;;4951377;28;20031;-85
2023/10/05 02:01:39;;;;;;;19.08;9.27;;;;;;;;;;4962550;28;20031;-84
2023/10/05 02:04:06;;;;;;;16.65;8.45;;;;;;;;;;4944945;28;20078;-84
2023/10/05 02:06:49;;;;;;;17.92;8.45;;;;;;;;;;4965879;28;20026;-85
2023/10/05 02:09:19;;;;;;;20.27;9.40;;;;;;;;;;4962311;28;20461;-86
2023/10/05 02:11:47;;;;;;;20.25;8.75;;;;;;;;;;4947436;28;20110;-88
2023/10/05 02:14:14;;;;;;;17.08;8.15;;;9.80;99.90;;;;;;4946247;28;20039;-85
2023/10/05 02:16:40;;;;;;;18.45;8.57;;;9.80;99.90;;;;;;4954558;28;20032;-86
2023/10/05 02:19:08;;;;;;;15.50;7.30;;;9.80;99.90;;;;;;4944910;28;20474;-85
2023/10/05 02:21:37;;;;;;;15.45;7.53;;;9.80;99.90;;;;;;4947341;28;20077;-86
2023/10/05 02:29:27;;;;;;;14.63;7.05;;;9.90;99.90;;;;;;4950468;28;20409;-84
2023/10/05 02:34:33;;;;;;;13.65;7.07;;;9.90;99.90;;;;;;4951870;28;20054;-86
2023/10/05 02:37:00;;;;;;;14.82;6.43;;;9.90;99.90;;;;;;4955122;28;20516;-88
2023/10/05 02:39:26;;;;;;;13.85;7.03;;;9.90;99.90;;;;;;4952376;28;20032;-86
2023/10/05 02:41:54;;;;;;;15.50;7.00;;;10.00;99.90;;;;;;4968106;28;20028;-85
2023/10/05 02:44:29;;;;;;;13.55;6.78;;;9.90;99.90;;;;;;4968660;28;20035;-84
2023/10/05 02:46:54;;;;;;;14.48;7.00;;;10.00;99.90;;;;;;4947381;28;20027;-87
2023/10/05 02:49:24;;;;;;;16.58;6.85;;;;;;;;;;4943626;28;20095;-86
2023/10/05 02:51:52;;;;;;;16.90;7.10;;;9.90;99.90;;;;;;4952428;28;20032;-84
2023/10/05 02:54:18;;;;;;;13.82;6.22;;;9.90;99.90;;;;;;4947516;28;20031;-83
2023/10/05 02:56:45;;;;;;;17.48;7.38;;;;;;;;;;4955528;28;20105;-85
2023/10/05 02:59:11;;;;;;;13.48;6.50;;;9.90;99.90;;;;;;4951940;28;20035;-87
2023/10/05 03:01:37;;;;;;;14.60;6.13;;;9.90;99.90;;;;;;4947361;28;20042;-86
2023/10/05 03:04:09;;;;;;;16.95;6.60;;;;;;;;;;4947488;28;20027;-84
2023/10/05 03:06:35;;;;;;;14.45;5.97;;;;;;;;;;4960052;28;20035;-86
2023/10/05 03:09:07;;;;;;;13.48;5.75;;;;;;;;;;4943309;28;20043;-83
2023/10/05 03:11:46;;;;;;;10.25;4.95;;;;;;;;;;4946707;28;20019;-85
2023/10/05 03:14:12;;;;;;;12.48;5.30;;;;;;;;;;4949746;28;20031;-86
2023/10/05 03:16:48;;;;;;;13.07;5.20;;;;;;;;;;4945358;28;20027;-86
2023/10/05 03:19:20;;;;;;;13.63;5.80;;;9.90;99.90;;;;;;4947225;28;20023;-84
2023/10/05 03:21:46;;;;;;;17.05;5.32;;;;;;;;;;4950949;28;20030;-83
2023/10/05 03:24:14;;;;;;;14.70;5.43;;;9.90;99.90;;;;;;4959702;28;20059;-84
2023/10/05 03:26:41;;;;;;;12.70;5.60;;;9.90;99.90;;;;;;4950626;28;20023;-83
2023/10/05 03:29:11;;;;;;;11.60;5.25;;;9.90;99.90;;;;;;4947805;28;20038;-82
2023/10/05 03:31:43;;;;;;;13.10;5.28;;;9.90;99.90;;;;;;4947458;28;20028;-82
2023/10/05 03:34:09;;;;;;;10.07;5.05;;;9.90;99.90;;;;;;4944366;28;20088;-85
2023/10/05 03:36:36;;;;;;;13.57;5.25;;;;;;;;;;4948348;28;20027;-86
2023/10/05 03:39:06;;;;;;;11.57;5.55;;;9.90;99.90;;;;;;4948076;28;20039;-86
2023/10/05 03:41:32;;;;;;;13.15;5.55;;;;;;;;;;4947402;28;20024;-87
2023/10/05 03:44:03;;;;;;;12.65;5.80;;;;;;;;;;4946243;28;20110;-83
2023/10/05 03:46:28;;;;;;;13.00;5.95;;;9.90;99.90;;;;;;4948342;28;20031;-87
2023/10/05 03:49:06;;;;;;;16.13;5.85;;;;;;;;;;4943474;28;20180;-85
2023/10/05 03:51:32;;;;;;;15.82;6.32;;;9.90;99.90;;;;;;4961375;28;20050;-86
2023/10/05 03:53:58;;;;;;;14.02;6.15;;;;;;;;;;4944779;28;20492;-86
2023/10/05 03:56:27;;;;;;;16.08;6.38;;;9.70;99.90;;;;;;4959676;28;20038;-87
2023/10/05 03:58:54;;;;;;;16.67;6.32;;;9.70;99.90;;;;;;4948658;28;20037;-86
2023/10/05 04:01:22;;;;;;;13.48;5.88;;;;;;;;;;4945942;28;20051;-84
2023/10/05 04:03:49;;;;;;;15.82;6.88;;;;;;;;;;4949138;28;20024;-87
2023/10/05 04:06:24;;;;;;;17.45;6.18;;;;;;;;;;4946716;28;20032;-84
2023/10/05 04:08:57;;;;;;;17.92;6.60;;;;;;;;;;4946137;28;20023;-84
2023/10/05 04:11:26;;;;;;;14.30;6.30;;;;;;;;;;4946321;28;20110;-86
2023/10/05 04:13:55;;;;;;;14.77;7.30;;;;;;;;;;4948869;28;20038;-86
2023/10/05 04:16:28;;;;;;;15.02;6.15;;;;;;;;;;4943809;28;20045;-84
2023/10/05 04:18:55;;;;;;;12.80;6.97;;;9.70;99.90;;;;;;4960290;28;20120;-86
2023/10/05 04:21:22;;;;;;;14.68;6.82;;;9.60;99.90;;;;;;4945541;28;20122;-84
2023/10/05 04:23:52;;;;;;;15.32;6.20;;;9.50;99.90;;;;;;4941919;28;20047;-84
2023/10/05 04:26:19;;;;;;;14.25;6.90;;;;;;;;;;4963614;28;20062;-87
2023/10/05 04:28:52;;;;;;;14.52;6.07;;;;;;;;;;4951374;28;20025;-86
2023/10/05 04:31:25;;;;;;;12.52;5.68;;;9.60;99.90;;;;;;4949151;28;20034;-84
2023/10/05 04:33:51;;;;;;;14.57;5.50;;;;;;;;;;4960086;28;20035;-85
2023/10/05 04:36:17;;;;;;;15.57;6.15;;;9.60;99.90;;;;;;4961260;28;20058;-84
2023/10/05 04:38:44;;;;;;;14.75;6.15;;;9.60;99.90;;;;;;4947350;28;20035;-81
2023/10/05 04:41:13;;;;;;;13.68;6.30;;;9.60;99.90;;;;;;4952586;28;20032;-84
2023/10/05 04:43:40;;;;;;;16.55;6.40;;;9.60;99.90;;;;;;4963339;28;20038;-87
2023/10/05 04:46:05;;;;;;;10.75;5.72;;;9.60;99.90;;;;;;4965763;28;20077;-85
2023/10/05 04:48:31;;;;;;;12.88;6.43;;;;;;;;;;4950349;28;20028;-86
2023/10/05 04:51:01;;;;;;;10.60;5.28;;;;;;;;;;4945767;28;20038;-87
2023/10/05 04:53:27;;;;;;;10.45;5.55;;;9.60;99.90;;;;;;4947143;28;20032;-89
2023/10/05 04:56:00;;;;;;;15.85;5.45;;;9.70;99.90;;;;;;4960437;28;20083;-88
2023/10/05 04:58:53;;;;;;;13.00;5.28;;;;;;;;;;4943066;28;20046;-86
2023/10/05 05:01:28;;;;;;;13.80;5.45;;;9.70;99.90;;;;;;4957359;28;20509;-81
2023/10/05 05:03:56;;;;;;;14.27;5.63;;;9.80;99.90;;;;;;4952279;28;20028;-84
2023/10/05 05:06:25;;;;;;;11.88;5.40;;;9.80;99.90;;;;;;4955677;28;20083;-85
2023/10/05 05:08:51;;;;;;;11.27;5.57;;;9.70;99.90;;;;;;4944145;28;20032;-84
2023/10/05 05:11:20;;;;;;;11.25;5.28;;;9.80;99.90;;;;;;4939926;28;20083;-85
2023/10/05 05:13:48;;;;;;;14.02;5.30;;;;;;;;;;4949140;28;20622;-86
2023/10/05 05:16:17;;;;;;;12.95;5.68;;;9.70;99.90;;;;;;4949373;28;20059;-80
2023/10/05 05:18:43;;;;;;;12.85;5.78;;;12.40;99.90;;;;;;4961112;28;20071;-83
2023/10/05 05:21:12;;;;;;;14.13;5.53;;;;;;;;;;4951521;28;20031;-83
2023/10/05 05:23:42;;;;;;;12.18;5.03;;;;;;;;;;4946978;28;20027;-83
2023/10/05 05:26:10;;;;;;;10.02;4.85;;;;;;;;;;4947961;28;20366;-84
2023/10/05 05:28:37;;;;;;;12.35;5.50;;;9.70;99.90;;;;;;4964678;28;20036;-87
2023/10/05 05:31:16;;;;;;;11.73;5.22;;;;;;;;;;4950109;28;20031;-84
2023/10/05 05:33:44;;;;;;;9.82;5.50;;;9.70;99.90;;;;;;4951710;28;20031;-86
2023/10/05 05:36:11;;;;;;;9.98;5.15;;;9.80;99.90;;;;;;4960595;28;20034;-81
2023/10/05 05:38:38;;;;;;;9.88;5.00;;;9.80;99.90;;;;;;4943700;28;20039;-85
2023/10/05 05:41:18;;;;;;;15.60;5.40;;;9.80;99.90;;;;;;4951615;28;20031;-87
2023/10/05 05:43:45;;;;;;;16.55;6.00;;;13.00;99.90;;;;;;4961900;28;20031;-84
2023/10/05 05:46:13;;;;;;;13.63;5.47;;;9.90;99.90;;;;;;4960705;28;20043;-85
2023/10/05 05:48:43;;;;;;;11.50;5.10;;;9.90;99.90;;;;;;4944291;28;20027;-86
2023/10/05 05:51:15;;;;;;;13.40;5.33;;;9.90;99.90;;;;;;4961238;28;20031;-85
2023/10/05 05:53:41;;;;;;;8.98;4.93;;;10.30;99.90;;;;;;4962573;28;20311;-82
2023/10/05 05:56:08;;;;;;;13.43;5.55;;;11.80;99.90;;;;;;4946235;28;20040;-82
2023/10/05 05:58:34;;;;;;;15.73;5.75;;;;;;;;;;4946613;28;20091;-84
2023/10/05 06:01:00;;;;;;;13.32;5.38;;;;;;;;;;4950524;28;20078;-80
2023/10/05 06:03:27;;;;;;;15.85;5.30;;;;;;;;;;4948615;28;20031;-84
2023/10/05 06:05:56;;;;;;;17.30;6.05;;;9.70;99.90;;;;;;4953525;28;20036;-85
2023/10/05 06:08:22;;;;;;;10.50;4.80;;;;;;;;;;4962023;28;20525;-83
2023/10/05 06:10:51;;;;;;;15.10;5.97;;;;;;;;;;4952912;28;20035;-82
2023/10/05 06:13:19;;;;;;;16.60;5.75;;;;;;;;;;4966800;28;20047;-85
2023/10/05 06:15:45;;;;;;;13.43;5.55;;;;;;;;;;4962047;28;20039;-86
2023/10/05 06:18:12;;;;;;;20.85;6.05;;;;;;;;;;4948800;28;20086;-86
2023/10/05 06:20:38;;;;;;;14.98;5.30;;;;;;;;;;4947526;28;20039;-85
2023/10/05 06:23:05;;;;;;;16.63;4.85;;;;;;;;;;4948349;28;20034;-87
2023/10/05 06:25:31;;;;;;;9.63;4.93;;;;;;;;;;4953421;28;20031;-87
2023/10/05 06:27:59;;;;;;;11.93;5.10;;;;;;;;;;4947110;28;20055;-86
2023/10/05 06:30:25;;;;;;;14.27;5.18;;;;;;;;;;4945876;28;20028;-87
2023/10/05 06:32:53;;;;;;;10.15;4.50;;;;;;;;;;4944221;28;20031;-86
2023/10/05 06:35:20;;;;;;;16.23;4.85;;;;;;;;;;4947752;28;20087;-84
2023/10/05 06:37:48;;;;;;;23.67;6.50;;;;;;;;;;4946516;28;20512;-87
2023/10/05 06:40:21;;;;;;;15.50;5.28;;;;;;;;;;4964546;28;20023;-86
2023/10/05 06:42:51;;;;;;;9.60;4.80;;;;;;;;;;4946017;28;20047;-86
2023/10/05 06:45:19;;;;;;;12.35;4.68;;;;;;;;;;4957958;28;20035;-87
2023/10/05 06:47:45;;;;;;;9.80;4.30;;;;;;;;;;4944591;28;20113;-84
2023/10/05 06:50:12;;;;;;;9.15;4.47;;;;;;;;;;4945836;28;20023;-82
2023/10/05 06:52:46;;;;;;;11.18;4.68;;;;;;;;;;4945608;28;20027;-85
2023/10/05 06:55:23;;;;;;;14.55;4.63;;;;;;;;;;4942975;28;20035;-85
2023/10/05 06:57:52;;;;;;;10.55;4.63;;;;;;;;;;4942551;28;20027;-86
2023/10/05 07:00:22;;;;;;;11.93;4.72;;;;;;;;;;4940159;28;20035;-84
2023/10/05 07:02:58;;;;;;;13.80;6.10;;;;;;;;;;4943308;28;20030;-88
2023/10/05 07:05:24;;;;;;;8.98;4.55;;;;;;;;;;4945408;28;20031;-85
2023/10/05 07:07:50;;;;;;;11.27;4.50;;;;;;;;;;4947513;28;20027;-83
2023/10/05 07:10:17;;;;;;;10.00;4.60;;;;;;;;;;4957777;28;20136;-82
2023/10/05 07:12:46;;;;;;;13.10;4.93;;;;;;;;;;4947988;28;20027;-86
2023/10/05 07:15:21;;;;;;;10.70;4.13;;;;;;;;;;4948278;28;20024;-82
2023/10/05 07:17:50;;;;;;;12.35;4.88;;;;;;;;;;4964330;28;20070;-81
2023/10/05 07:20:16;;;;;;;12.18;4.75;;;;;;;;;;4944095;28;20051;-85
2023/10/05 07:22:44;;;;;;;12.60;4.43;;;;;;;;;;4947268;28;20035;-82
2023/10/05 07:25:19;;;;;;;12.43;4.85;;;;;;;;;;4942825;28;20043;-85
2023/10/05 07:27:47;;;;;;;14.38;4.88;;;;;;;;;;4969060;28;20126;-89
2023/10/05 07:30:14;;;;;;;11.05;4.88;;;;;;;;;;4948070;28;20521;-83
2023/10/05 07:32:40;;;;;;;9.65;5.05;;;;;;;;;;4946942;28;20023;-83
2023/10/05 07:35:09;;;;;;;13.25;5.00;;;;;;;;;;4946956;28;20026;-83
2023/10/05 07:37:35;;;;;;;8.15;4.40;;;;;;;;;;4955165;28;20023;-83
2023/10/05 07:40:04;;;;;;;9.90;4.50;;;;;;;;;;4944920;28;20083;-84
2023/10/05 07:42:30;;;;;;;11.57;5.00;;;;;;;;;;4962809;28;20034;-81
2023/10/05 07:44:56;;;;;;;10.90;4.65;;;;;;;;;;4945249;28;21310;-84
2023/10/05 07:47:24;;;;;;;12.82;4.55;;;;;;;;;;4938641;28;20164;-83
2023/10/05 07:49:51;;;;;;;11.35;4.78;;;;;;;;;;4950822;28;20028;-85
2023/10/05 07:52:17;;;;;;;11.48;4.57;;;;;;;;;;4945094;28;20035;-83
2023/10/05 07:54:44;;;;;;;9.20;4.40;;;;;;;;;;4956810;28;20085;-86
2023/10/05 07:57:11;;;;;;;10.88;4.82;;;11.00;99.90;;;;;;4946682;28;20027;-82
2023/10/05 07:59:41;;;;;;;11.45;5.07;;;11.10;99.90;;;;;;4943349;28;20493;-83
2023/10/05 08:02:13;;;;;;;;;;;11.60;99.90;;;;;;4959915;28;20031;-82
2023/10/05 08:04:39;;;;;;;15.95;4.82;;;;;;;;;;4944200;28;20376;-82
2023/10/05 08:07:05;;;;;;;11.02;4.80;;;;;;;;;;4945846;28;20051;-81
2023/10/05 08:09:31;;;;;;;9.00;5.20;;;;;;;;;;4948886;28;20031;-84
2023/10/05 08:11:57;;;;;;;8.63;4.38;;;;;;;;;;4955945;28;20051;-87
2023/10/05 08:14:24;;;;;;;11.40;4.60;;;;;;;;;;4947651;28;20043;-84
2023/10/05 08:16:51;;;;;;;12.48;4.30;;;;;;;;;;4965444;28;20032;-82
2023/10/05 08:19:19;;;;;;;11.20;4.25;;;;;;;;;;4946965;28;20490;-83
2023/10/05 08:21:45;;;;;;;12.32;4.32;;;;;;;;;;4946784;28;20054;-79
2023/10/05 08:24:14;;;;;;;12.25;4.68;;;;;;;;;;4949693;28;20038;-81
2023/10/05 08:26:40;;;;;;;11.13;4.82;;;;;;;;;;4942198;28;20034;-83
2023/10/05 08:29:06;;;;;;;8.43;4.22;;;;;;;;;;4946266;28;20506;-84
2023/10/05 08:31:33;;;;;;;8.65;4.38;;;12.00;99.90;;;;;;4944059;28;20133;-83
2023/10/05 08:34:03;;;;;;;7.97;4.18;;;;;;;;;;4964578;28;20107;-85
2023/10/05 08:36:29;;;;;;;9.95;4.30;;;;;;;;;;4961613;28;20116;-81
2023/10/05 08:38:56;;;;;;;9.68;4.30;;;;;;;;;;4946451;28;20125;-83
2023/10/05 08:41:31;;;;;;;10.95;4.47;;;12.10;99.90;;;;;;4952271;28;20034;-80
2023/10/05 08:44:00;;;;;;;12.15;4.22;;;12.20;99.90;;;;;;4945843;28;20039;-81
2023/10/05 08:46:27;;;;;;;10.13;4.03;;;12.30;99.90;;;;;;4949356;28;20028;-84
2023/10/05 08:48:55;;;;;;;12.18;4.43;;;13.40;99.90;;;;;;4944979;28;20028;-82
2023/10/05 08:51:24;;;;;;;12.48;4.63;;;12.50;99.90;;;;;;4948496;28;20509;-84
2023/10/05 08:53:54;;;;;;;13.15;4.18;;;12.80;99.90;;;;;;4950680;28;20050;-84
2023/10/05 08:56:22;;;;;;;11.43;4.85;;;;;;;;;;4959651;28;20035;-82
2023/10/05 08:58:48;;;;;;;13.75;4.88;;;12.80;99.90;;;;;;4964627;28;20039;-85
2023/10/05 09:01:27;;;;;;;17.95;4.88;;;12.80;99.90;;;;;;4943004;28;20087;-83
2023/10/05 09:03:54;;;;;;;13.30;4.53;;;13.00;99.90;;;;;;4951873;28;20485;-82
2023/10/05 09:06:26;;;;;;;8.68;4.22;;;13.00;99.90;;;;;;4962158;28;20039;-80
2023/10/05 09:08:53;;;;;;;9.95;4.38;;;13.10;99.90;;;;;;4961521;28;20019;-82
2023/10/05 09:11:31;;;;;;;10.45;4.75;;;;;;;;;;4967672;28;20090;-84
2023/10/05 09:14:27;;;;;;;14.63;5.40;;;13.20;99.90;;;;;;4949608;28;20034;-83
2023/10/05 09:17:04;;;;;;;10.35;4.50;;;;;;;;;;4948615;28;20058;-85
2023/10/05 09:19:33;;;;;;;13.45;5.05;;;;;;;;;;4955367;28;20552;-83
2023/10/05 09:24:26;;;;;;;14.25;5.00;;;;;;;;;;4955972;28;20027;-85
2023/10/05 09:27:19;;;;;;;11.40;4.50;;;13.80;99.90;;;;;;4946723;28;20020;-84
2023/10/05 09:29:45;;;;;;;13.63;5.10;;;;;;;;;;4957011;28;20018;-84
2023/10/05 09:32:22;;;;;;;12.48;4.90;;;;;;;;;;4948222;28;20019;-82
2023/10/05 09:34:51;;;;;;;12.00;4.82;;;;;;;;;;4955768;28;20023;-85
2023/10/05 09:37:23;;;;;;;14.00;5.10;;;;;;;;;;4950084;28;20043;-80
2023/10/05 09:39:49;;;;;;;13.45;4.90;;;;;;;;;;4964092;28;20429;-79
2023/10/05 09:42:25;;;;;;;13.13;5.22;;;;;;;;;;4953264;28;20091;-84
2023/10/05 09:44:52;;;;;;;12.27;4.60;;;;;;;;;;4947370;28;20039;-80
2023/10/05 09:47:25;;;;;;;13.45;4.25;;;;;;;;;;4940090;28;20035;-83
2023/10/05 09:49:52;;;;;;;13.15;4.57;;;;;;;;;;4961651;28;20082;-81
2023/10/05 09:52:21;;;;;;;13.73;4.30;;;;;;;;;;4944423;28;20035;-84
2023/10/05 09:54:49;;;;;;;15.25;5.07;;;;;;;;;;4949289;28;20050;-82
2023/10/05 09:57:20;;;;;;;12.85;4.05;;;;;;;;;;4947548;28;20032;-86
2023/10/05 09:59:57;;;;;;;16.08;4.90;;;;;;;;;;4949639;28;20035;-82
2023/10/05 10:02:24;;;;;;;10.38;3.95;;;;;;;;;;4965334;28;20047;-81
2023/10/05 10:04:52;;;;;;;16.13;4.90;;;;;;;;;;4948998;28;20098;-85
2023/10/05 10:07:22;;;;;;;9.90;4.32;;;;;;;;;;4944020;28;20055;-81
2023/10/05 10:09:53;;;;;;;13.63;4.13;;;;;;;;;;4951405;28;20030;-83
2023/10/05 10:12:38;;;;;;;15.82;4.85;;;;;;;;;;4950978;28;20024;-83
2023/10/05 10:15:05;;;;;;;10.20;4.03;;;;;;;;;;4943239;28;20531;-84
2023/10/05 10:17:35;;;;;;;9.45;3.63;;;;;;;;;;4966828;28;20035;-83
2023/10/05 10:20:34;;;;;;;15.27;5.55;;;16.30;99.90;;;;;;4954185;28;20083;-83
2023/10/05 10:23:21;;;;;;;11.67;4.40;;;16.40;99.90;;;;;;4961738;28;20173;-80
2023/10/05 10:25:51;;;;;;;10.93;4.40;;;16.50;99.90;;;;;;4956800;28;20294;-84
2023/10/05 10:28:19;;;;;;;10.70;4.82;;;16.50;99.90;;;;;;4948123;28;20113;-83
2023/10/05 10:31:11;;;;;;;10.57;4.35;;;16.60;99.90;;;;;;4964024;28;20621;-87
2023/10/05 10:33:37;;;;;;;12.77;3.60;;;;;;;;;;4945345;28;20795;-82
2023/10/05 10:36:06;;;;;;;11.63;3.80;;;;;;;;;;4953545;28;20062;-89
2023/10/05 10:38:32;;;;;;;13.88;4.07;;;;;;;;;;4943204;28;20543;-85
2023/10/05 10:41:15;;;;;;;9.55;3.85;;;17.00;99.90;;;;;;4960739;28;20031;-81
2023/10/05 10:43:45;;;;;;;8.60;3.47;;;;;;;;;;4958989;28;20042;-85
2023/10/05 10:46:20;;;;;;;12.30;3.50;;;17.30;99.90;;;;;;4952183;28;20098;-84
2023/10/05 10:48:53;;;;;;;9.70;4.00;;;17.60;99.90;;;;;;4961038;28;20147;-83
2023/10/05 10:51:22;;;;;;;12.02;3.80;;;17.60;99.90;;;;;;4957875;28;20482;-84
2023/10/05 10:53:55;;;;;;;15.73;3.75;;;17.60;99.90;;;;;;4960850;28;20557;-82
2023/10/05 10:56:27;;;;;;;13.52;3.28;;;17.50;99.90;;;;;;4965523;28;20122;-81
2023/10/05 10:59:09;;;;;;;6.18;2.45;;;17.50;99.90;;;;;;4960064;28;20045;-82
2023/10/05 11:01:42;;;;;;;9.77;3.28;;;;;;;;;;4953332;28;20036;-85
2023/10/05 11:04:25;;;;;;;9.48;3.35;;;17.50;99.90;;;;;;4966234;28;20034;-88
2023/10/05 11:07:00;;;;;;;6.60;2.60;;;;;;;;;;4966083;28;20035;-83
2023/10/05 11:09:30;;;;;;;12.57;2.78;;;17.30;99.90;;;;;;4969818;28;20027;-81
2023/10/05 11:12:08;;;;;;;11.43;2.97;;;;;;;;;;4955459;28;20035;-83
2023/10/05 11:14:36;;;;;;;11.55;3.55;;;;;;;;;;4951932;28;20036;-83
2023/10/05 11:17:11;;;;;;;10.60;3.45;;;;;;;;;;4964326;28;20027;-84
2023/10/05 11:19:38;;;;;;;13.80;3.38;;;;;;;;;;4966105;28;20494;-87
2023/10/05 11:22:11;;;;;;;7.97;2.80;;;;;;;;;;4962756;28;20043;-84
2023/10/05 11:25:15;;;;;;;9.98;2.90;;;17.50;99.90;;;;;;4950751;28;20027;-85
2023/10/05 11:27:54;;;;;;;8.60;2.67;;;17.40;99.90;;;;;;4959192;28;20024;-85
2023/10/05 11:30:39;;;;;;;6.53;2.20;;;17.30;99.90;;;;;;4962257;28;20031;-83
2023/10/05 11:33:15;;;;;;;7.60;2.33;;;17.30;99.90;;;;;;4949854;28;20031;-85
2023/10/05 11:35:49;;;;;;;10.90;3.83;;;17.10;99.90;;;;;;4957394;28;20152;-82
2023/10/05 11:38:16;;;;;;;10.48;2.92;;;17.00;99.90;;;;;;4955199;28;20023;-82
2023/10/05 11:40:53;;;;;;;11.00;3.10;;;;;;;;;;4951907;28;20035;-83
2023/10/05 11:43:20;;;;;;;10.00;2.88;;;;;;;;;;4948851;28;20027;-80
2023/10/05 11:45:55;;;;;;;14.15;3.55;;;;;;;;;;4943475;28;20462;-85
2023/10/05 11:48:22;;;;;;;8.20;3.10;;;;;;;;;;4967785;28;20489;-85
2023/10/05 11:50:52;;;;;;;7.90;2.70;;;;;;;;;;4951642;28;20058;-85
2023/10/05 11:53:20;;;;;;;11.57;2.97;;;17.00;99.90;;;;;;4949144;28;20039;-87
2023/10/05 11:55:49;;;;;;;11.23;2.88;;;17.10;99.90;;;;;;4942152;28;20028;-86
2023/10/05 11:58:16;;;;;;;5.63;2.33;;;;;;;;;;4962781;28;20024;-82
2023/10/05 12:00:43;;;;;;;8.48;2.70;;;;;;;;;;4953779;28;20039;-86
2023/10/05 12:03:09;;;;;;;9.63;2.95;;;;;;;;;;4956031;28;20569;-82
2023/10/05 12:05:38;;;;;;;8.32;2.80;;;;;;;;;;4952945;28;20150;-85
2023/10/05 12:08:06;;;;;;;9.27;2.72;;;;;;;;;;4968563;28;20023;-85
2023/10/05 12:10:35;;;;;;;9.57;2.45;;;;;;;;;;4959679;28;20388;-86
2023/10/05 12:13:02;;;;;;;7.97;2.47;;;;;;;;;;4953033;28;20484;-86
2023/10/05 12:15:28;;;;;;;6.93;2.70;;;;;;;;;;4964758;28;20110;-85
2023/10/05 12:17:55;;;;;;;13.55;3.10;;;;;;;;;;4948582;28;20026;-86
2023/10/05 12:20:21;;;;;;;15.82;3.00;;;;;;;;;;4955774;28;20425;-84
2023/10/05 12:22:49;;;;;;;9.45;3.00;;;;;;;;;;4946388;28;20118;-83
2023/10/05 12:25:24;;;;;;;8.00;2.50;;;;;;;;;;4939291;28;20028;-86
2023/10/05 12:27:50;;;;;;;11.82;3.50;;;;;;;;;;4951573;28;20063;-83
2023/10/05 12:30:16;;;;;;;9.60;2.83;;;;;;;;;;4971291;28;20390;-82
2023/10/05 12:32:42;;;;;;;8.00;2.80;;;;;;;;;;4950677;28;20024;-86
2023/10/05 12:35:19;;;;;;;11.15;2.88;;;16.90;99.90;;;;;;4958075;28;20083;-83
2023/10/05 12:37:46;;;;;;;11.93;3.22;;;;;;;;;;4963025;28;20121;-83
2023/10/05 12:40:18;;;;;;;12.05;3.00;;;;;;;;;;4956593;28;20023;-84
2023/10/05 12:42:54;;;;;;;9.27;3.08;;;;;;;;;;4956584;28;20047;-85
2023/10/05 12:45:23;;;;;;;12.88;2.80;;;17.00;99.90;;;;;;4980064;28;20103;-86
2023/10/05 12:47:54;;;;;;;9.57;2.65;;;17.00;99.90;;;;;;4966549;28;20031;-86
2023/10/05 12:50:21;;;;;;;8.45;2.42;;;;;;;;;;4980214;28;20124;-86
2023/10/05 12:52:51;;;;;;;10.82;2.65;;;17.10;99.90;;;;;;4968316;28;20031;-87
2023/10/05 12:55:23;;;;;;;9.95;2.50;;;;;;;;;;4967905;28;20038;-87
2023/10/05 12:57:51;;;;;;;10.18;2.80;;;17.10;99.90;;;;;;4967094;28;20007;-86
2023/10/05 13:00:22;;;;;;;13.50;2.72;;;;;;;;;;4972296;28;20150;-87
2023/10/05 13:02:52;;;;;;;7.93;2.83;;;;;;;;;;4978913;28;20050;-84
2023/10/05 13:05:22;;;;;;;8.93;2.55;;;;;;;;;;4978679;28;20042;-84
2023/10/05 13:07:48;;;;;;;7.18;2.50;;;;;;;;;;4967711;28;20110;-81
2023/10/05 13:10:21;;;;;;;8.85;2.67;;;;;;;;;;4960614;28;20135;-83
2023/10/05 13:12:50;;;;;;;6.88;1.88;;;;;;;;;;4950546;28;20023;-80
2023/10/05 13:15:19;;;;;;;9.00;2.63;;;;;;;;;;4949953;28;20051;-83
2023/10/05 13:17:46;;;;;;;6.60;2.58;;;18.00;99.90;;;;;;4949861;28;20039;-83
2023/10/05 13:20:23;;;;;;;7.75;2.47;;;;;;;;;;4947983;28;20027;-83
2023/10/05 13:22:49;;;;;;;7.72;2.30;;;;;;;;;;4971751;28;20046;-86
2023/10/05 13:25:16;;;;;;;7.75;2.47;;;;;;;;;;4963859;28;20047;-85
2023/10/05 13:27:42;;;;;;;7.72;2.10;;;;;;;;;;4944437;28;20404;-84
2023/10/05 13:30:10;;;;;;;8.35;2.50;;;;;;;;;;4945243;28;20545;-83
2023/10/05 13:32:38;;;;;;;9.52;2.15;;;;;;;;;;4964578;28;20114;-84
2023/10/05 13:35:10;;;;;;;9.10;2.88;;;;;;;;;;4953374;28;20018;-83
2023/10/05 13:37:36;;;;;;;6.80;2.20;;;;;;;;;;4948747;28;20112;-86
2023/10/05 13:40:04;;;;;;;5.38;2.10;;;;;;;;;;4951671;28;20059;-85
2023/10/05 13:42:34;;;;;;;6.57;1.95;;;;;;;;;;4968695;28;20039;-85
2023/10/05 13:45:10;;;;;;;10.75;2.25;;;;;;;;;;4960370;28;20039;-84
2023/10/05 13:47:36;;;;;;;6.68;1.88;;;;;;;;;;4957643;28;20043;-85
2023/10/05 13:50:09;;;;;;;5.97;2.13;;;;;;;;;;4951186;28;20028;-84
2023/10/05 13:52:38;;;;;;;4.30;1.70;;;;;;;;;;4965514;28;20060;-86
2023/10/05 13:55:07;;;;;;;11.02;2.10;;;;;;;;;;4968246;28;20036;-83
2023/10/05 13:57:34;;;;;;;13.68;7.95;;;;;;;;;;4960513;28;20040;-85
2023/10/05 14:00:05;;;;;;;8.20;2.53;;;;;;;;;;4950893;28;20486;-89
2023/10/05 14:02:31;;;;;;;6.55;2.10;;;;;;;;;;4958621;28;20042;-84
2023/10/05 14:04:57;;;;;;;7.38;2.10;;;;;;;;;;4966112;28;20026;-85
2023/10/05 14:07:24;;;;;;;6.22;1.85;;;;;;;;;;4957013;28;20024;-84
2023/10/05 14:09:52;;;;;;;9.32;2.30;;;;;;;;;;4962252;28;20061;-85
2023/10/05 14:12:18;;;;;;;5.45;1.95;;;;;;;;;;4952379;28;20024;-87
2023/10/05 14:14:45;;;;;;;10.43;2.38;;;;;;;;;;4963977;28;20035;-85
2023/10/05 14:17:11;;;;;;;6.93;1.92;;;;;;;;;;4963601;28;20027;-84
2023/10/05 14:19:38;;;;;;;6.60;1.73;;;;;;;;;;4955416;28;20035;-86
2023/10/05 14:22:08;;;;;;;6.50;3.05;;;;;;;;;;4957924;28;20027;-85
2023/10/05 14:24:36;;;;;;;7.88;2.22;;;;;;;;;;4955142;28;20031;-88
2023/10/05 14:27:04;;;;;;;10.77;2.65;;;;;;;;;;4959810;28;20090;-84
2023/10/05 14:29:36;;;;;;;10.65;2.72;;;;;;;;;;4960122;28;20023;-86